Time;durP1;ratioP1;P1;durP2;ratioP2;P2;SDS_P1;SDS_P2;PMS_P1;PMS_P2;Temp;Humidity;BMP_temperature;BMP_pressure;BME280_temperature;BME280_humidity;BME280_pressure;Samples;Min_cycle;Max_cycle;Signal;HPM_P1;HPM_P2
2022/03/03 00:02:06;;;;;;;18.00;14.27;;;3.20;99.90;;;;;;4992717;28;20505;-90
2022/03/03 00:04:34;;;;;;;14.65;12.57;;;2.50;99.90;;;;;;4995221;28;20452;-91
2022/03/03 00:07:03;;;;;;;15.52;12.90;;;4.30;99.90;;;;;;5009639;28;20289;-89
2022/03/03 00:09:29;;;;;;;17.52;14.30;;;2.30;99.90;;;;;;5011934;28;20181;-90
2022/03/03 00:11:57;;;;;;;18.57;13.90;;;3.80;99.90;;;;;;4991971;28;20293;-91
2022/03/03 00:14:23;;;;;;;13.87;12.47;;;0.30;99.90;;;;;;4994646;28;20212;-90
2022/03/03 00:16:54;;;;;;;17.30;13.87;;;4.00;99.90;;;;;;5004685;28;20434;-91
2022/03/03 00:19:20;;;;;;;17.60;14.27;;;2.60;99.90;;;;;;4994662;28;20582;-89
2022/03/03 00:21:51;;;;;;;16.20;13.53;;;2.20;99.90;;;;;;4994086;28;20200;-90
2022/03/03 00:24:17;;;;;;;19.02;13.27;;;5.40;99.90;;;;;;4993640;28;20219;-90
2022/03/03 00:26:43;;;;;;;20.23;14.33;;;1.40;99.90;;;;;;4993420;28;20184;-89
2022/03/03 00:29:11;;;;;;;18.73;14.60;;;;;;;;;;4993517;28;20228;-90
2022/03/03 00:31:50;;;;;;;18.77;13.93;;;2.30;99.90;;;;;;5009194;28;20211;-89
2022/03/03 00:34:15;;;;;;;16.20;13.93;;;1.90;99.90;;;;;;4990632;28;20441;-90
2022/03/03 00:36:44;;;;;;;15.73;13.20;;;2.00;99.90;;;;;;5026290;28;20184;-91
2022/03/03 00:39:10;;;;;;;21.13;14.30;;;2.60;99.90;;;;;;4990047;28;20676;-89
2022/03/03 00:41:44;;;;;;;16.40;12.33;;;1.90;99.90;;;;;;5014044;28;20518;-89
2022/03/03 00:44:12;;;;;;;17.10;14.80;;;2.00;99.90;;;;;;5020739;23;20177;-85
2022/03/03 00:46:44;;;;;;;17.50;13.07;;;4.40;99.90;;;;;;5034316;23;20765;-88
2022/03/03 00:49:17;;;;;;;17.15;13.98;;;2.00;99.90;;;;;;4974451;28;20430;-86
2022/03/03 00:51:49;;;;;;;21.47;15.47;;;2.00;99.90;;;;;;4985564;28;20599;-87
2022/03/03 00:54:19;;;;;;;18.37;14.83;;;1.90;99.90;;;;;;4989154;28;20435;-87
2022/03/03 00:56:46;;;;;;;18.88;14.48;;;4.10;99.90;;;;;;4981188;28;20440;-83
2022/03/03 00:59:12;;;;;;;18.00;15.05;;;1.70;99.90;;;;;;4997748;28;20197;-83
2022/03/03 01:01:38;;;;;;;20.20;14.10;;;1.30;99.90;;;;;;4998478;28;20202;-85
2022/03/03 01:04:03;;;;;;;22.03;15.10;;;3.90;99.90;;;;;;4982946;28;20199;-83
2022/03/03 01:06:29;;;;;;;19.47;15.27;;;1.70;99.90;;;;;;4980559;28;20725;-83
2022/03/03 01:08:58;;;;;;;21.77;15.90;;;1.60;99.90;;;;;;4996511;28;20274;-85
2022/03/03 01:11:23;;;;;;;17.63;14.02;;;1.80;99.90;;;;;;4993125;28;20199;-83
2022/03/03 01:13:49;;;;;;;21.00;15.63;;;1.80;99.90;;;;;;4999184;28;21343;-83
2022/03/03 01:16:15;;;;;;;24.90;14.97;;;1.80;99.90;;;;;;4993335;28;20204;-85
2022/03/03 01:18:42;;;;;;;19.50;13.63;;;1.80;99.90;;;;;;4987316;28;20585;-83
2022/03/03 01:21:08;;;;;;;17.92;14.60;;;3.10;99.90;;;;;;4985987;28;20730;-84
2022/03/03 01:23:33;;;;;;;21.90;17.10;;;1.80;99.90;;;;;;4978757;28;20186;-83
2022/03/03 01:25:59;;;;;;;20.07;15.37;;;1.70;99.90;;;;;;4985005;28;20610;-84
2022/03/03 01:28:25;;;;;;;20.97;15.80;;;1.70;99.90;;;;;;4950614;28;20211;-82
2022/03/03 01:30:50;;;;;;;22.50;15.20;;;1.60;99.90;;;;;;4967326;28;20756;-82
2022/03/03 01:33:16;;;;;;;19.00;14.30;;;1.60;99.90;;;;;;4968288;28;20784;-82
2022/03/03 01:35:42;;;;;;;22.50;16.03;;;1.60;99.90;;;;;;4984702;28;20191;-83
2022/03/03 01:38:08;;;;;;;18.23;14.83;;;1.50;99.90;;;;;;4980233;28;20354;-82
2022/03/03 01:40:34;;;;;;;22.67;16.85;;;1.50;99.90;;;;;;4985340;28;20209;-84
2022/03/03 01:43:00;;;;;;;20.83;14.87;;;1.30;99.90;;;;;;4987839;28;20173;-85
2022/03/03 01:45:26;;;;;;;20.45;14.23;;;1.30;99.90;;;;;;4988690;28;20489;-84
2022/03/03 01:47:51;;;;;;;25.47;16.80;;;1.20;99.90;;;;;;5006956;28;20539;-84
2022/03/03 01:50:17;;;;;;;25.30;16.07;;;1.30;99.90;;;;;;5004728;28;20214;-84
2022/03/03 01:52:43;;;;;;;20.33;14.93;;;1.30;99.90;;;;;;4999955;28;20174;-83
2022/03/03 01:55:10;;;;;;;18.57;14.63;;;1.20;99.90;;;;;;5004358;28;20516;-84
2022/03/03 01:57:36;;;;;;;21.92;15.40;;;0.50;99.90;;;;;;5006534;28;20597;-84
2022/03/03 02:00:05;;;;;;;23.55;15.77;;;1.20;99.90;;;;;;5004724;28;20227;-83
2022/03/03 02:02:30;;;;;;;19.93;15.20;;;1.40;99.90;;;;;;5006701;28;20175;-83
2022/03/03 02:04:56;;;;;;;19.63;15.10;;;1.40;99.90;;;;;;5004729;28;20450;-83
2022/03/03 02:07:22;;;;;;;21.90;16.20;;;1.40;99.90;;;;;;5021543;28;20184;-84
2022/03/03 02:09:48;;;;;;;17.27;15.10;;;1.40;99.90;;;;;;5004092;28;20674;-83
2022/03/03 02:12:14;;;;;;;19.40;15.00;;;1.20;99.90;;;;;;4978198;28;20194;-84
2022/03/03 02:14:41;;;;;;;17.80;14.68;;;1.20;99.90;;;;;;5005351;28;20714;-84
2022/03/03 02:17:07;;;;;;;20.00;15.80;;;1.10;99.90;;;;;;4990779;28;20202;-84
2022/03/03 02:19:33;;;;;;;22.83;15.13;;;1.10;99.90;;;;;;4988335;28;20554;-84
2022/03/03 02:21:58;;;;;;;19.57;14.53;;;1.10;99.90;;;;;;4994998;28;20231;-84
2022/03/03 02:24:24;;;;;;;22.10;15.83;;;1.00;99.90;;;;;;5005802;28;20455;-84
2022/03/03 02:26:50;;;;;;;18.80;14.27;;;1.00;99.90;;;;;;4999494;28;20244;-84
2022/03/03 02:29:16;;;;;;;19.37;14.60;;;0.90;99.90;;;;;;5005751;28;20234;-84
2022/03/03 02:31:41;;;;;;;20.60;14.30;;;0.90;99.90;;;;;;4998145;28;20220;-85
2022/03/03 02:34:07;;;;;;;21.73;15.17;;;1.00;99.90;;;;;;5006149;28;20439;-84
2022/03/03 02:36:33;;;;;;;19.97;15.63;;;0.90;99.90;;;;;;4981449;28;20197;-84
2022/03/03 02:39:01;;;;;;;19.00;14.87;;;0.90;99.90;;;;;;4988745;28;20483;-84
2022/03/03 02:41:27;;;;;;;18.13;14.48;;;1.00;99.90;;;;;;5006308;28;20434;-84
2022/03/03 02:43:53;;;;;;;17.10;14.20;;;0.90;99.90;;;;;;4991711;28;20214;-84
2022/03/03 02:46:19;;;;;;;23.95;15.32;;;1.00;99.90;;;;;;5022508;28;20651;-84
2022/03/03 02:48:46;;;;;;;18.30;14.63;;;1.00;99.90;;;;;;5009299;28;20234;-83
2022/03/03 02:51:12;;;;;;;17.30;14.60;;;0.90;99.90;;;;;;5007755;28;20453;-83
2022/03/03 02:53:38;;;;;;;18.88;15.77;;;0.20;99.90;;;;;;4991190;28;21014;-84
2022/03/03 02:56:05;;;;;;;22.03;14.67;;;0.80;99.90;;;;;;5004193;28;20275;-83
2022/03/03 02:58:31;;;;;;;19.67;14.85;;;0.80;99.90;;;;;;4991327;28;20938;-84
2022/03/03 03:00:58;;;;;;;25.23;15.13;;;0.60;99.90;;;;;;5007513;28;20208;-83
2022/03/03 03:03:24;;;;;;;27.23;16.00;;;0.70;99.90;;;;;;5009009;28;20938;-83
2022/03/03 03:05:50;;;;;;;21.50;15.40;;;0.70;99.90;;;;;;5007356;28;20211;-83
2022/03/03 03:08:16;;;;;;;22.80;15.60;;;0.70;99.90;;;;;;5007633;28;20264;-84
2022/03/03 03:10:42;;;;;;;22.90;15.40;;;0.70;99.90;;;;;;4989631;28;20289;-85
2022/03/03 03:13:12;;;;;;;22.63;15.60;;;0.80;99.90;;;;;;4991534;28;20432;-85
2022/03/03 03:15:38;;;;;;;18.83;14.13;;;1.30;99.90;;;;;;4996630;28;20221;-84
2022/03/03 03:18:15;;;;;;;25.47;15.70;;;0.50;99.90;;;;;;5009006;28;20190;-85
2022/03/03 03:20:43;;;;;;;19.45;15.05;;;0.80;99.90;;;;;;4992497;28;21094;-84
2022/03/03 03:23:11;;;;;;;19.05;14.52;;;0.10;99.90;;;;;;5008472;28;20679;-83
2022/03/03 03:25:37;;;;;;;19.27;15.00;;;0.80;99.90;;;;;;4989495;28;20371;-82
2022/03/03 03:28:05;;;;;;;20.98;15.93;;;0.60;99.90;;;;;;4991509;28;20563;-83
2022/03/03 03:30:31;;;;;;;21.37;14.93;;;0.80;99.90;;;;;;4990061;28;20189;-83
2022/03/03 03:32:56;;;;;;;21.10;15.68;;;0.80;99.90;;;;;;5008670;28;20477;-82
2022/03/03 03:35:23;;;;;;;20.93;15.07;;;0.80;99.90;;;;;;5001549;28;20197;-83
2022/03/03 03:37:49;;;;;;;24.27;16.98;;;0.80;99.90;;;;;;5002895;28;20180;-82
2022/03/03 03:40:15;;;;;;;23.25;16.58;;;0.60;99.90;;;;;;4989356;28;20222;-84
2022/03/03 03:42:41;;;;;;;17.87;13.97;;;0.50;99.90;;;;;;5009049;28;20234;-84
2022/03/03 03:45:08;;;;;;;20.17;14.10;;;0.60;99.90;;;;;;5006648;28;20973;-83
2022/03/03 03:47:34;;;;;;;20.80;14.77;;;0.60;99.90;;;;;;5006873;28;20724;-83
2022/03/03 03:50:02;;;;;;;20.17;14.70;;;0.50;99.90;;;;;;5006531;28;20451;-84
2022/03/03 03:52:28;;;;;;;26.57;17.00;;;1.80;99.90;;;;;;5009365;28;20164;-84
2022/03/03 03:54:54;;;;;;;23.05;15.45;;;0.60;99.90;;;;;;5006988;28;20439;-84
2022/03/03 03:57:19;;;;;;;20.60;14.23;;;0.50;99.90;;;;;;4991029;28;20417;-85
2022/03/03 03:59:45;;;;;;;17.63;14.03;;;0.50;99.90;;;;;;5006598;28;20741;-85
2022/03/03 04:02:11;;;;;;;23.30;13.60;;;0.70;99.90;;;;;;4990981;28;20191;-84
2022/03/03 04:04:37;;;;;;;17.07;14.30;;;0.70;99.90;;;;;;4990179;28;20238;-84
2022/03/03 04:07:02;;;;;;;21.20;15.07;;;0.70;99.90;;;;;;4995636;28;20892;-84
2022/03/03 04:09:28;;;;;;;22.20;15.10;;;0.70;99.90;;;;;;5008921;28;20576;-84
2022/03/03 04:11:54;;;;;;;22.77;15.07;;;0.70;99.90;;;;;;5000374;28;20436;-84
2022/03/03 04:14:19;;;;;;;16.60;13.37;;;0.80;99.90;;;;;;5008915;28;20199;-83
2022/03/03 04:16:45;;;;;;;21.80;14.33;;;0.70;99.90;;;;;;5006439;28;20694;-84
2022/03/03 04:19:10;;;;;;;20.30;15.10;;;0.80;99.90;;;;;;5007996;28;20219;-84
2022/03/03 04:21:36;;;;;;;22.10;14.93;;;-0.90;99.90;;;;;;4981166;28;20212;-83
2022/03/03 04:24:02;;;;;;;15.73;13.77;;;0.90;99.90;;;;;;5008095;28;20687;-82
2022/03/03 04:26:28;;;;;;;18.17;12.50;;;0.90;99.90;;;;;;5006438;28;20299;-83
2022/03/03 04:28:54;;;;;;;19.60;14.37;;;0.90;99.90;;;;;;4990258;28;20436;-82
2022/03/03 04:31:19;;;;;;;20.87;13.93;;;0.60;99.90;;;;;;4996493;28;20685;-83
2022/03/03 04:33:46;;;;;;;21.60;15.50;;;1.70;99.90;;;;;;4990128;28;20978;-84
2022/03/03 04:36:12;;;;;;;20.23;14.57;;;0.50;99.90;;;;;;4997160;28;20196;-85
2022/03/03 04:38:37;;;;;;;19.30;14.00;;;0.60;99.90;;;;;;5007309;28;20932;-84
2022/03/03 04:41:03;;;;;;;19.90;13.10;;;-0.60;99.90;;;;;;5006427;28;20594;-83
2022/03/03 04:43:29;;;;;;;20.50;13.40;;;2.00;99.90;;;;;;5007834;28;20208;-83
2022/03/03 04:45:55;;;;;;;17.60;15.13;;;;;;;;;;5005718;28;20247;-83
2022/03/03 04:48:21;;;;;;;17.60;14.38;;;0.40;99.90;;;;;;5007781;28;20598;-83
2022/03/03 04:50:47;;;;;;;22.05;16.20;;;0.70;99.90;;;;;;5006138;28;20294;-83
2022/03/03 04:53:13;;;;;;;21.50;14.00;;;;;;;;;;4987390;28;20719;-83
2022/03/03 04:55:40;;;;;;;20.00;14.30;;;0.40;99.90;;;;;;5005961;28;20211;-83
2022/03/03 04:58:05;;;;;;;20.75;15.43;;;0.30;99.90;;;;;;5007505;28;20431;-84
2022/03/03 05:00:32;;;;;;;15.67;13.97;;;;;;;;;;4999074;28;20205;-83
2022/03/03 05:02:57;;;;;;;22.95;13.10;;;0.30;99.90;;;;;;4997593;28;20287;-84
2022/03/03 05:05:23;;;;;;;19.80;14.90;;;0.20;99.90;;;;;;4999887;28;20924;-84
2022/03/03 05:07:49;;;;;;;20.10;13.63;;;0.20;99.90;;;;;;5003482;28;20180;-84
2022/03/03 05:10:14;;;;;;;25.53;14.43;;;0.60;99.90;;;;;;5005610;28;20276;-84
2022/03/03 05:12:40;;;;;;;17.77;13.33;;;0.10;99.90;;;;;;4988892;28;20610;-83
2022/03/03 05:15:08;;;;;;;18.00;13.50;;;-1.30;99.90;;;;;;5003298;28;20205;-84
2022/03/03 05:17:52;;;;;;;24.52;15.34;;;-0.10;99.90;;;;;;4950247;28;10000455;-84
2022/03/03 05:20:18;;;;;;;17.10;13.10;;;0.10;99.90;;;;;;4992135;28;20242;-84
2022/03/03 05:22:43;;;;;;;16.20;12.67;;;1.40;99.90;;;;;;5011317;28;20562;-84
2022/03/03 05:25:12;;;;;;;18.30;13.37;;;2.60;99.90;;;;;;5012236;28;20206;-84
2022/03/03 05:27:40;;;;;;;17.67;12.85;;;-0.20;99.90;;;;;;5007280;28;20270;-80
2022/03/03 05:30:06;;;;;;;22.83;13.95;;;-0.10;99.90;;;;;;5019286;28;20195;-84
2022/03/03 05:32:31;;;;;;;15.95;12.10;;;-0.20;99.90;;;;;;5008410;28;20568;-86
2022/03/03 05:34:57;;;;;;;17.83;13.73;;;-0.30;99.90;;;;;;5007357;28;20321;-83
2022/03/03 05:37:24;;;;;;;20.03;14.60;;;-0.10;99.90;;;;;;4997900;28;20193;-83
2022/03/03 05:39:52;;;;;;;18.63;14.75;;;-0.20;99.90;;;;;;5011333;28;20405;-82
2022/03/03 05:42:20;;;;;;;19.88;14.90;;;1.50;99.90;;;;;;5002468;28;20194;-83
2022/03/03 05:44:47;;;;;;;26.17;13.82;;;1.70;99.90;;;;;;5000626;28;20253;-84
2022/03/03 05:47:13;;;;;;;20.42;13.60;;;1.90;99.90;;;;;;5019655;28;20242;-82
2022/03/03 05:49:41;;;;;;;19.75;13.82;;;-0.30;99.90;;;;;;5005014;28;20732;-83
2022/03/03 05:52:09;;;;;;;21.65;13.82;;;0.00;99.90;;;;;;5011970;28;20271;-83
2022/03/03 05:54:35;;;;;;;16.27;11.45;;;0.80;99.90;;;;;;5009828;28;20188;-81
2022/03/03 05:57:02;;;;;;;19.00;14.57;;;0.00;99.90;;;;;;5010718;28;20177;-81
2022/03/03 05:59:32;;;;;;;22.55;14.90;;;0.00;99.90;;;;;;5004554;28;20220;-82
2022/03/03 06:01:59;;;;;;;18.20;14.15;;;-0.10;99.90;;;;;;5011576;28;20188;-82
2022/03/03 06:04:29;;;;;;;21.67;15.23;;;2.30;99.90;;;;;;4993022;28;20279;-84
2022/03/03 06:07:06;;;;;;;17.08;12.82;;;-1.50;99.90;;;;;;5000529;28;20203;-83
2022/03/03 06:09:34;;;;;;;17.55;11.25;;;-0.40;99.90;;;;;;4995456;28;20215;-80
2022/03/03 06:12:22;;;;;;;16.17;13.10;;;1.60;99.90;;;;;;4989457;28;20244;-84
2022/03/03 06:15:00;;;;;;;21.15;13.27;;;-1.30;99.90;;;;;;4994666;28;20200;-83
2022/03/03 06:17:26;;;;;;;20.77;12.20;;;-2.10;99.90;;;;;;5013617;28;20180;-82
2022/03/03 06:19:52;;;;;;;18.00;13.77;;;-0.20;99.90;;;;;;5007430;28;20210;-83
2022/03/03 06:22:19;;;;;;;17.00;12.18;;;0.40;99.90;;;;;;4975834;28;20649;-83
2022/03/03 06:24:45;;;;;;;21.70;14.95;;;1.70;99.90;;;;;;5005816;28;20188;-82
2022/03/03 06:27:12;;;;;;;17.63;11.50;;;-0.50;99.90;;;;;;5010622;28;20180;-84
2022/03/03 06:29:50;;;;;;;18.70;12.93;;;-0.10;99.90;;;;;;4992440;28;20421;-85
2022/03/03 06:32:16;;;;;;;15.68;11.93;;;0.90;99.90;;;;;;4993498;28;20191;-80
2022/03/03 06:34:48;;;;;;;22.30;14.43;;;0.40;99.90;;;;;;5020075;28;20196;-81
2022/03/03 06:37:13;;;;;;;21.58;14.52;;;1.00;99.90;;;;;;5008393;28;20438;-82
2022/03/03 06:39:52;;;;;;;;;;;;;;;;;;;;;
2022/03/03 06:42:18;;;;;;;19.80;14.10;;;-0.10;99.90;;;;;;4998406;28;20192;-83
2022/03/03 06:44:44;;;;;;;15.83;12.60;;;-1.40;99.90;;;;;;4989359;28;20436;-79
2022/03/03 06:47:10;;;;;;;18.53;13.70;;;-0.10;99.90;;;;;;5008957;28;20485;-80
2022/03/03 06:49:35;;;;;;;16.10;13.37;;;0.50;99.90;;;;;;5009731;28;20247;-82
2022/03/03 06:52:03;;;;;;;17.90;15.03;;;-0.50;99.90;;;;;;5011141;28;20443;-83
2022/03/03 06:54:32;;;;;;;17.60;12.93;;;0.20;99.90;;;;;;5007591;28;20219;-84
2022/03/03 06:56:58;;;;;;;18.25;12.80;;;1.10;99.90;;;;;;4994429;28;20221;-85
2022/03/03 06:59:33;;;;;;;13.80;11.43;;;-0.30;99.90;;;;;;5003325;28;20597;-82
2022/03/03 07:02:00;;;;;;;22.73;13.23;;;-0.50;99.90;;;;;;5017949;28;20922;-84
2022/03/03 07:04:29;;;;;;;14.27;12.53;;;-1.90;99.90;;;;;;4993338;28;20203;-81
2022/03/03 07:06:55;;;;;;;20.48;12.35;;;0.90;99.90;;;;;;4994190;28;20435;-78
2022/03/03 07:09:23;;;;;;;12.40;11.10;;;1.20;99.90;;;;;;5010394;28;20189;-84
2022/03/03 07:11:50;;;;;;;17.63;12.77;;;1.30;99.90;;;;;;5013475;28;20188;-85
2022/03/03 07:14:16;;;;;;;15.40;11.50;;;4.80;99.90;;;;;;4975893;28;20421;-85
2022/03/03 07:17:01;;;;;;;16.50;11.47;;;4.80;99.90;;;;;;4993858;28;20406;-84
2022/03/03 07:19:57;;;;;;;14.10;12.43;;;2.40;99.90;;;;;;4646550;28;9999797;-84
2022/03/03 07:22:40;;;;;;;11.27;10.20;;;5.20;99.90;;;;;;5021120;28;20200;-84
2022/03/03 07:25:07;;;;;;;13.23;10.93;;;7.60;99.90;;;;;;5021621;28;20478;-82
2022/03/03 07:27:34;;;;;;;13.83;12.37;;;5.90;99.90;;;;;;5014664;28;20435;-80
2022/03/03 07:30:05;;;;;;;13.07;11.80;;;6.70;99.90;;;;;;5009371;28;20427;-83
2022/03/03 07:32:34;;;;;;;13.20;11.93;;;9.10;99.90;;;;;;5012980;28;20450;-82
2022/03/03 07:35:05;;;;;;;13.33;12.00;;;6.20;99.80;;;;;;4987867;28;20451;-85
2022/03/03 07:37:44;;;;;;;11.67;10.50;;;7.70;99.50;;;;;;5007044;28;20424;-85
2022/03/03 07:40:10;;;;;;;12.60;11.33;;;8.60;99.30;;;;;;5002932;28;20538;-85
2022/03/03 07:42:37;;;;;;;12.80;11.60;;;10.40;98.90;;;;;;4993162;28;20968;-85
2022/03/03 07:45:04;;;;;;;15.90;13.50;;;9.10;95.30;;;;;;5001372;28;20818;-85
2022/03/03 07:47:33;;;;;;;12.87;11.50;;;9.60;93.40;;;;;;5002255;28;20524;-82
2022/03/03 07:50:03;;;;;;;15.83;12.97;;;10.70;91.10;;;;;;4996963;28;20436;-86
2022/03/03 07:52:29;;;;;;;17.13;12.87;;;8.70;88.10;;;;;;5010418;28;20427;-85
2022/03/03 07:54:55;;;;;;;13.73;12.30;;;9.90;88.10;;;;;;5022885;28;20593;-85
2022/03/03 07:57:22;;;;;;;13.47;12.07;;;11.90;84.20;;;;;;5027633;28;20435;-87
2022/03/03 07:59:57;;;;;;;15.10;12.10;;;10.70;77.60;;;;;;4988464;28;20216;-85
2022/03/03 08:02:24;;;;;;;13.30;12.00;;;11.70;74.40;;;;;;5011265;28;20430;-83
2022/03/03 08:04:52;;;;;;;14.23;12.70;;;12.20;70.00;;;;;;5027423;28;20411;-85
2022/03/03 08:07:19;;;;;;;14.70;13.30;;;12.20;67.80;;;;;;5026085;28;20951;-85
2022/03/03 08:10:03;;;;;;;15.17;13.87;;;12.80;63.10;;;;;;5085875;23;20583;-87
2022/03/03 08:18:04;;;;;;;14.57;13.13;;;13.10;55.10;;;;;;5367410;23;20478;-81
2022/03/03 08:23:14;;;;;;;16.67;15.03;;;13.20;50.70;;;;;;4821215;23;10000014;-87
2022/03/03 08:25:40;;;;;;;15.30;13.90;;;15.90;49.90;;;;;;5129520;23;20333;-84
2022/03/03 08:28:06;;;;;;;17.70;15.00;;;14.80;49.00;;;;;;5364056;23;21781;-83
2022/03/03 08:30:34;;;;;;;16.33;14.37;;;14.70;46.30;;;;;;5292109;22;20482;-82
2022/03/03 08:33:10;;;;;;;14.57;13.20;;;15.70;47.50;;;;;;5183368;23;20491;-84
2022/03/03 08:35:57;;;;;;;23.17;14.97;;;14.90;45.60;;;;;;5185024;22;20495;-87
2022/03/03 08:38:34;;;;;;;16.37;14.70;;;15.90;47.30;;;;;;5206647;23;21369;-87
2022/03/03 08:41:05;;;;;;;15.97;14.57;;;14.70;44.20;;;;;;5029867;28;20454;-82
2022/03/03 08:43:36;;;;;;;20.33;15.73;;;14.70;44.80;;;;;;5359697;23;20872;-83
2022/03/03 08:46:19;;;;;;;19.67;15.20;;;16.50;46.10;;;;;;5270728;23;20462;-86
2022/03/03 08:51:22;;;;;;;19.27;17.37;;;15.40;39.30;;;;;;5299722;23;20451;-83
2022/03/03 08:53:48;;;;;;;17.90;16.20;;;14.50;40.50;;;;;;5034729;28;20447;-83
2022/03/03 08:56:16;;;;;;;17.30;15.70;;;16.90;38.90;;;;;;5067642;28;20266;-81
2022/03/03 08:58:42;;;;;;;16.73;15.23;;;18.20;40.80;;;;;;5049302;28;20266;-84
2022/03/03 09:01:08;;;;;;;17.47;15.40;;;18.00;40.40;;;;;;5050161;28;20422;-81
2022/03/03 09:03:40;;;;;;;16.93;15.53;;;18.50;36.30;;;;;;5034078;28;20413;-84
2022/03/03 09:06:06;;;;;;;16.77;15.10;;;19.10;35.50;;;;;;5035586;28;20175;-83
2022/03/03 09:08:32;;;;;;;16.67;15.10;;;20.60;35.50;;;;;;5045814;28;20449;-85
2022/03/03 09:10:58;;;;;;;18.07;16.23;;;19.90;32.70;;;;;;5028407;28;20500;-85
2022/03/03 09:13:24;;;;;;;16.67;15.17;;;20.70;33.70;;;;;;5016730;28;20442;-84
2022/03/03 09:15:52;;;;;;;16.23;14.83;;;19.60;31.60;;;;;;5027137;28;20790;-85
2022/03/03 09:18:18;;;;;;;17.13;15.43;;;20.80;32.70;;;;;;5023471;28;20219;-84
2022/03/03 09:20:43;;;;;;;17.80;16.10;;;19.30;30.80;;;;;;5051982;28;20912;-80
2022/03/03 09:23:32;;;;;;;16.03;14.30;;;19.90;31.90;;;;;;5031657;28;20293;-84
2022/03/03 09:26:03;;;;;;;15.60;14.20;;;20.50;30.80;;;;;;5032116;28;20171;-83
2022/03/03 09:29:07;;;;;;;16.50;14.80;;;20.50;29.70;;;;;;5031279;28;20430;-84
2022/03/03 09:31:38;;;;;;;15.70;14.40;;;21.30;30.80;;;;;;4956011;28;20516;-83
2022/03/03 09:34:32;;;;;;;16.97;15.60;;;21.50;33.20;;;;;;5050088;28;20500;-84
2022/03/03 09:36:58;;;;;;;17.03;15.33;;;22.30;30.00;;;;;;5035568;28;20533;-84
2022/03/03 09:39:30;;;;;;;16.63;15.13;;;23.80;30.40;;;;;;5034939;28;20761;-79
2022/03/03 09:41:56;;;;;;;18.17;16.70;;;23.50;29.90;;;;;;5033297;28;20439;-77
2022/03/03 09:44:40;;;;;;;16.90;15.50;;;21.90;30.60;;;;;;5035495;28;20430;-85
2022/03/03 09:47:18;;;;;;;16.23;14.73;;;22.90;31.00;;;;;;5021236;28;20940;-82
2022/03/03 09:49:50;;;;;;;16.30;14.80;;;22.50;30.20;;;;;;5057492;28;20581;-82
2022/03/03 09:52:19;;;;;;;17.30;15.67;;;23.60;30.10;;;;;;5035125;28;20592;-83
2022/03/03 09:54:53;;;;;;;16.57;14.60;;;22.30;29.40;;;;;;5036270;28;20414;-85
2022/03/03 09:57:48;;;;;;;17.87;16.10;;;22.40;29.60;;;;;;5031553;28;20516;-84
2022/03/03 10:00:15;;;;;;;15.60;14.10;;;21.70;28.50;;;;;;5016680;28;20438;-83
2022/03/03 10:03:14;;;;;;;17.37;15.77;;;23.10;28.70;;;;;;5023483;28;20445;-82
2022/03/03 10:05:52;;;;;;;15.57;13.97;;;22.60;28.40;;;;;;5033948;28;20440;-85
2022/03/03 10:08:26;;;;;;;15.10;13.80;;;23.20;28.40;;;;;;5031151;28;20433;-82
2022/03/03 10:14:28;;;;;;;15.80;14.47;;;23.80;28.80;;;;;;4997789;28;20512;-85
2022/03/03 10:17:08;;;;;;;15.33;13.87;;;22.50;28.10;;;;;;5029996;28;20435;-84
2022/03/03 10:20:12;;;;;;;14.10;13.00;;;22.70;26.60;;;;;;5058869;28;20604;-84
2022/03/03 10:23:26;;;;;;;16.97;15.40;;;23.70;29.20;;;;;;5042473;28;20416;-85
2022/03/03 10:26:41;;;;;;;13.87;12.57;;;22.90;27.10;;;;;;5023265;28;20434;-80
2022/03/03 10:39:49;;;;;;;12.70;11.73;;;21.70;26.50;;;;;;4584791;23;20493;-89
2022/03/03 10:42:20;;;;;;;15.43;14.00;;;22.90;36.30;;;;;;5054794;28;20428;-88
2022/03/03 10:45:04;;;;;;;13.37;12.30;;;20.90;26.60;;;;;;5033860;28;20553;-88
2022/03/03 10:47:29;;;;;;;13.37;12.33;;;22.20;27.00;;;;;;5034175;28;20680;-88
2022/03/03 10:49:57;;;;;;;12.70;11.70;;;20.20;26.50;;;;;;4683035;28;10000168;-90
2022/03/03 10:52:25;;;;;;;13.10;12.10;;;19.60;27.50;;;;;;5036252;28;20265;-86
2022/03/03 10:55:23;;;;;;;12.60;11.60;;;20.70;26.20;;;;;;5070875;28;20416;-87
2022/03/03 10:58:00;;;;;;;18.70;13.03;;;21.20;26.80;;;;;;5025695;28;20449;-87
2022/03/03 11:00:36;;;;;;;14.37;13.03;;;22.00;25.40;;;;;;5053524;28;20451;-86
2022/03/03 11:03:08;;;;;;;12.20;11.30;;;21.80;25.60;;;;;;5057778;28;21070;-88
2022/03/03 11:05:34;;;;;;;13.30;12.30;;;22.10;26.10;;;;;;5055920;28;20480;-86
2022/03/03 11:08:02;;;;;;;13.53;12.40;;;22.70;25.70;;;;;;5071148;28;20517;-87
2022/03/03 11:10:30;;;;;;;13.37;12.13;;;22.90;25.90;;;;;;5070843;28;20256;-85
2022/03/03 11:12:57;;;;;;;13.70;12.60;;;23.10;25.60;;;;;;5047492;28;20434;-87
2022/03/03 11:15:25;;;;;;;14.03;12.93;;;23.50;25.40;;;;;;5072263;28;20647;-88
2022/03/03 11:17:52;;;;;;;13.10;12.00;;;23.60;25.80;;;;;;5063843;28;20433;-87
2022/03/03 11:20:19;;;;;;;14.47;13.47;;;23.30;25.20;;;;;;5054680;28;20428;-87
2022/03/03 11:22:46;;;;;;;12.80;11.90;;;22.40;26.30;;;;;;5054471;28;20557;-88
2022/03/03 11:25:19;;;;;;;13.37;12.37;;;21.60;24.60;;;;;;5056523;28;20448;-86
2022/03/03 11:27:45;;;;;;;12.17;11.37;;;23.30;25.10;;;;;;5074420;28;20417;-86
2022/03/03 11:30:34;;;;;;;13.70;12.60;;;23.60;25.40;;;;;;5078086;28;20472;-87
2022/03/03 11:33:30;;;;;;;13.90;12.70;;;23.20;25.30;;;;;;5041632;28;20418;-87
2022/03/03 11:36:04;;;;;;;13.20;12.10;;;22.80;25.00;;;;;;5072128;28;20429;-89
2022/03/03 11:39:00;;;;;;;13.80;12.63;;;22.90;25.10;;;;;;5075349;28;21013;-86
2022/03/03 11:41:51;;;;;;;12.57;11.67;;;22.90;25.00;;;;;;5049933;28;20515;-88
2022/03/03 11:44:19;;;;;;;12.67;11.67;;;23.10;25.30;;;;;;5069566;28;20440;-83
2022/03/03 11:47:01;;;;;;;13.60;12.57;;;23.30;25.90;;;;;;5073699;28;20684;-86
2022/03/03 11:49:33;;;;;;;13.93;12.87;;;24.30;25.10;;;;;;5072210;28;20480;-87
2022/03/03 11:52:09;;;;;;;12.73;11.60;;;25.20;26.30;;;;;;5071969;28;20987;-86
2022/03/03 11:54:46;;;;;;;13.23;12.17;;;23.40;25.30;;;;;;5054002;28;20939;-85
2022/03/03 11:57:11;;;;;;;14.23;12.80;;;23.00;25.40;;;;;;5043811;28;20945;-84
2022/03/03 11:59:46;;;;;;;13.80;12.37;;;23.20;26.10;;;;;;5050799;28;20425;-86
2022/03/03 12:02:16;;;;;;;16.70;13.27;;;22.40;24.30;;;;;;5049985;28;20186;-85
2022/03/03 12:04:42;;;;;;;12.37;11.53;;;21.90;24.90;;;;;;5052190;28;20802;-84
2022/03/03 12:07:28;;;;;;;14.13;13.10;;;22.00;25.40;;;;;;5052129;28;20763;-87
2022/03/03 12:09:56;;;;;;;13.00;11.80;;;23.10;25.30;;;;;;5054689;28;20504;-91
2022/03/03 12:12:36;;;;;;;12.97;11.97;;;22.50;25.30;;;;;;5056581;28;20456;-86
2022/03/03 12:15:08;;;;;;;14.23;12.83;;;22.60;24.70;;;;;;5059519;28;20432;-88
2022/03/03 12:17:43;;;;;;;15.33;14.03;;;23.30;25.00;;;;;;4716966;28;10000294;-86
2022/03/03 12:20:24;;;;;;;12.60;11.70;;;22.60;24.50;;;;;;5046393;28;20474;-83
2022/03/03 12:23:04;;;;;;;13.23;12.13;;;22.70;24.80;;;;;;5049635;28;20562;-86
2022/03/03 12:26:13;;;;;;;12.43;11.40;;;23.30;24.50;;;;;;5052168;28;20413;-87
2022/03/03 12:28:40;;;;;;;13.43;12.33;;;22.30;24.50;;;;;;5058090;28;20436;-84
2022/03/03 12:31:20;;;;;;;13.90;12.90;;;22.00;25.50;;;;;;5059320;28;20485;-89
2022/03/03 12:34:07;;;;;;;14.60;13.07;;;22.80;25.70;;;;;;5074924;28;20595;-89
2022/03/03 12:36:36;;;;;;;14.73;13.23;;;22.70;25.80;;;;;;5039862;28;20440;-86
2022/03/03 12:39:10;;;;;;;14.63;13.23;;;22.10;25.80;;;;;;5054726;28;20457;-87
2022/03/03 12:41:43;;;;;;;16.00;14.50;;;23.00;25.90;;;;;;5059022;28;20478;-87
2022/03/03 12:44:17;;;;;;;15.90;14.50;;;23.60;26.40;;;;;;5038403;28;20660;-87
2022/03/03 12:46:45;;;;;;;15.73;14.13;;;22.90;26.30;;;;;;5084648;23;21003;-79
2022/03/03 12:49:13;;;;;;;14.10;12.97;;;23.20;25.50;;;;;;5027614;28;20466;-78
2022/03/03 12:51:44;;;;;;;15.40;14.20;;;22.20;25.20;;;;;;5017006;28;20436;-78
2022/03/03 12:54:10;;;;;;;15.77;14.30;;;22.30;25.40;;;;;;5007067;28;20574;-78
2022/03/03 12:56:36;;;;;;;13.97;12.63;;;21.80;25.30;;;;;;5006278;28;20443;-79
2022/03/03 12:59:07;;;;;;;14.03;12.83;;;21.60;25.60;;;;;;5007383;28;20545;-78
2022/03/03 13:01:37;;;;;;;14.23;13.03;;;22.30;25.80;;;;;;5007439;28;20220;-79
2022/03/03 13:04:04;;;;;;;15.57;14.07;;;22.20;25.40;;;;;;5008309;28;20435;-81
2022/03/03 13:06:32;;;;;;;14.27;12.87;;;22.50;25.50;;;;;;5006374;28;20518;-80
2022/03/03 13:09:03;;;;;;;15.60;14.30;;;22.90;25.50;;;;;;5006378;28;20420;-79
2022/03/03 13:11:30;;;;;;;14.43;13.20;;;22.40;25.20;;;;;;5004284;28;20436;-83
2022/03/03 13:14:06;;;;;;;15.23;13.93;;;22.20;25.80;;;;;;5001574;28;20435;-82